Hovedside
METAR-TAF:

METAR-TAF

Lufthavner :

Örnsköldsvik, Sverige

Örnsköldsvik lufthavn

breddegrad: 63-24N, lengdegrad: 018-58E, høyde over havet: 103 m

Gjeldene værobservasjon

Denne rapporten ble laget for 31 minutter siden, klokken 18:50 UTC
Vind 2 kt fra skiftende retning
Temperatur 10°C
Luftfuktighet 87%
Trykk 1016 hPa
Sikt 10 km eller mer
Få skyer i en høyde av 2500 ft
Brutte skyer i en høyde av 5000 ft

METAR: ESNO 271850Z VRB02KT 9999 FEW025 BKN050 10/08 Q1016

Tid: 21:21 (19:21 UTC)

Varsel

Denne rapporten ble laget for 1 time og 51 minutter siden, klokken 17:30 UTC
Varsel gyldig fra 27. klokken 18 UTC til 27. klokken 20 UTC
Vind 4 kt fra Øst-nordøst
Sikt 10 km eller mer
Brutte skyer i en høyde av 2000 ft
Sannsynlighet 40%
fra 27. klokken 19 UTC til 27. klokken 20 UTC
Brutte skyer i en høyde av 700 ft

TAF: ESNO 271730Z 2718/2720 06004KT 9999 BKN020 PROB40 2719/2720 BKN007

Værobservasjoner og værvarsel for over 4000 flyplasser (METAR- og TAF-rapporter).

Tilgjengelige stasjoner er representert av de røde og gule prikkene på kartet.

Hold musepekeren over prikken for å se navnet på stasjonen.

Klikk så for å se værobservasjoner og -varsler.

For å forandre kartet kan du klikke på den grønne knappen med svart kryss for å zoome inn, på den grønne knappen med strek for å zoome ut, eller på de grønne pilene for å se tilstøtende kart.


METAR-TAF: